createdAt,value
2019-05-06T00:02:04.593Z,15.32
2019-05-06T00:04:36.114Z,15.29
2019-05-06T00:07:08.007Z,15.26
2019-05-06T00:09:39.676Z,15.25
2019-05-06T00:12:11.725Z,15.28
2019-05-06T00:14:43.775Z,15.26
2019-05-06T00:17:15.940Z,15.25
2019-05-06T00:19:47.642Z,15.26
2019-05-06T00:22:19.691Z,15.30
2019-05-06T00:24:58.295Z,15.32
2019-05-06T00:27:55.277Z,15.20
2019-05-06T00:30:27.231Z,15.28
2019-05-06T00:32:59.064Z,15.26
2019-05-06T00:35:30.766Z,15.25
2019-05-06T00:38:04.376Z,15.30
2019-05-06T00:40:37.909Z,15.23
2019-05-06T00:43:10.583Z,15.30
2019-05-06T00:45:44.315Z,15.24
2019-05-06T00:48:16.225Z,15.12
2019-05-06T00:50:47.790Z,15.21
2019-05-06T00:53:23.830Z,15.15
2019-05-06T00:55:56.057Z,15.09
2019-05-06T00:58:27.906Z,15.09
2019-05-06T01:00:59.672Z,15.12
2019-05-06T01:03:31.461Z,15.14
2019-05-06T01:06:04.029Z,15.14
2019-05-06T01:08:36.028Z,15.12
2019-05-06T01:11:08.220Z,15.09
2019-05-06T01:13:49.508Z,15.02
2019-05-06T01:16:21.961Z,14.99
2019-05-06T01:18:54.209Z,15.01
2019-05-06T01:21:25.961Z,14.93
2019-05-06T01:23:57.724Z,14.75
2019-05-06T01:26:29.512Z,14.59
2019-05-06T01:29:03.737Z,14.74
2019-05-06T01:31:42.703Z,14.77
2019-05-06T01:34:09.099Z,14.68
2019-05-06T01:36:40.917Z,14.67
2019-05-06T01:39:34.381Z,14.57
2019-05-06T01:42:24.611Z,14.70
2019-05-06T01:44:56.628Z,14.62
2019-05-06T01:47:28.516Z,14.68
2019-05-06T01:50:00.337Z,14.66
2019-05-06T01:52:34.362Z,14.52
2019-05-06T01:55:05.639Z,14.48
2019-05-06T01:57:37.436Z,14.57
2019-05-06T02:00:14.130Z,14.59
2019-05-06T02:02:45.701Z,14.64
2019-05-06T02:05:17.480Z,14.68
2019-05-06T02:07:49.307Z,14.74
2019-05-06T02:10:23.711Z,14.71
2019-05-06T02:12:56.254Z,14.59
2019-05-06T02:15:27.866Z,14.59
2019-05-06T02:17:59.397Z,14.45
2019-05-06T02:20:31.328Z,14.48
2019-05-06T02:23:10.739Z,14.33
2019-05-06T02:25:46.354Z,14.43
2019-05-06T02:28:17.808Z,14.45
2019-05-06T02:31:08.621Z,14.22
2019-05-06T02:34:05.327Z,14.07
2019-05-06T02:36:45.533Z,14.25
2019-05-06T02:39:17.281Z,14.14
2019-05-06T02:41:49.156Z,14.15
2019-05-06T02:44:23.729Z,14.23
2019-05-06T02:47:03.328Z,14.32
2019-05-06T02:50:00.053Z,14.32
2019-05-06T02:52:32.928Z,14.33
2019-05-06T02:55:06.507Z,14.21
2019-05-06T02:57:39.609Z,14.07
2019-05-06T03:00:15.352Z,14.22
2019-05-06T03:02:48.198Z,14.15
2019-05-06T03:05:23.714Z,14.18
2019-05-06T03:07:57.618Z,14.24
2019-05-06T03:10:29.122Z,14.27
2019-05-06T03:13:03.032Z,14.28
2019-05-06T03:15:34.663Z,14.26
2019-05-06T03:18:06.269Z,14.33
2019-05-06T03:20:56.014Z,14.36
2019-05-06T03:23:30.491Z,14.39
2019-05-06T03:26:03.754Z,14.30
2019-05-06T03:28:36.110Z,14.39
2019-05-06T03:31:08.384Z,14.36
2019-05-06T03:34:03.385Z,14.37
2019-05-06T03:36:24.432Z,14.44
2019-05-06T03:38:48.532Z,14.45
2019-05-06T03:41:26.075Z,14.42
2019-05-06T03:43:54.550Z,14.13
2019-05-06T03:46:48.352Z,14.30
2019-05-06T03:49:18.609Z,14.34
2019-05-06T03:51:56.037Z,14.31
2019-05-06T03:54:24.588Z,14.37
2019-05-06T03:56:57.168Z,14.44
2019-05-06T03:59:33.481Z,14.51
2019-05-06T04:02:05.420Z,14.56
2019-05-06T04:04:37.410Z,14.52
2019-05-06T04:07:09.191Z,14.57
2019-05-06T04:09:43.969Z,14.53
2019-05-06T04:12:15.700Z,14.53
2019-05-06T04:14:47.436Z,14.52
2019-05-06T04:17:37.033Z,14.56
2019-05-06T04:20:18.422Z,14.63
2019-05-06T04:23:08.665Z,14.66
2019-05-06T04:25:58.459Z,14.69
2019-05-06T04:28:34.185Z,14.72
2019-05-06T04:31:07.249Z,14.78
2019-05-06T04:33:38.929Z,14.77
2019-05-06T04:36:13.140Z,14.76
2019-05-06T04:38:44.183Z,14.74
2019-05-06T04:41:16.193Z,14.74
2019-05-06T04:43:48.341Z,14.74
2019-05-06T04:46:23.363Z,14.85
2019-05-06T04:48:54.174Z,14.83
2019-05-06T04:51:27.105Z,14.75
2019-05-06T04:53:58.946Z,14.66
2019-05-06T04:56:33.218Z,14.59
2019-05-06T04:59:06.383Z,14.57
2019-05-06T05:01:38.005Z,14.61
2019-05-06T05:04:26.925Z,14.56
2019-05-06T05:06:43.445Z,14.65
2019-05-06T05:09:17.427Z,14.63
2019-05-06T05:11:53.744Z,14.43
2019-05-06T05:14:53.690Z,14.49
2019-05-06T05:17:47.062Z,14.53
2019-05-06T05:20:19.071Z,14.79
2019-05-06T05:22:52.741Z,14.94
2019-05-06T05:25:22.695Z,15.04
2019-05-06T05:27:54.433Z,15.11
2019-05-06T05:30:26.225Z,15.11
2019-05-06T05:32:58.019Z,15.12
2019-05-06T05:35:31.992Z,14.88
2019-05-06T05:38:03.641Z,15.08
2019-05-06T05:40:35.860Z,15.25
2019-05-06T05:43:29.611Z,15.35
2019-05-06T05:46:02.885Z,15.32
2019-05-06T05:48:52.475Z,15.42
2019-05-06T05:51:24.965Z,15.51
2019-05-06T05:53:56.803Z,15.58
2019-05-06T05:56:29.010Z,15.74
2019-05-06T05:59:03.032Z,15.69
2019-05-06T06:01:34.340Z,15.58
2019-05-06T06:04:06.280Z,15.58
2019-05-06T06:06:38.155Z,15.76
2019-05-06T06:09:10.017Z,15.77
2019-05-06T06:12:02.829Z,16.04
2019-05-06T06:14:55.937Z,16.16
2019-05-06T06:17:45.271Z,15.97
2019-05-06T06:20:35.084Z,16.04
2019-05-06T06:23:13.559Z,16.25
2019-05-06T06:25:45.195Z,16.12
2019-05-06T06:28:16.913Z,16.35
2019-05-06T06:31:12.071Z,16.38
2019-05-06T06:33:44.001Z,16.56
2019-05-06T06:36:46.470Z,16.69
2019-05-06T06:39:32.718Z,16.62
2019-05-06T06:42:04.403Z,16.68
2019-05-06T06:44:36.598Z,16.88
2019-05-06T06:47:08.334Z,17.35
2019-05-06T06:49:42.444Z,17.77
2019-05-06T06:52:14.874Z,18.12
2019-05-06T06:54:46.676Z,18.42
2019-05-06T06:57:37.383Z,18.65
2019-05-06T07:00:33.574Z,18.61
2019-05-06T07:03:14.995Z,17.73
2019-05-06T07:06:02.337Z,16.91
2019-05-06T07:08:37.602Z,16.18
2019-05-06T07:11:07.923Z,15.66
2019-05-06T07:13:43.456Z,15.28
2019-05-06T07:16:15.465Z,15.41
2019-05-06T07:18:46.898Z,15.22
2019-05-06T07:21:24.416Z,15.24
2019-05-06T07:23:56.127Z,15.10
2019-05-06T07:26:31.863Z,15.05
2019-05-06T07:29:13.640Z,14.89
2019-05-06T07:31:37.145Z,14.74
2019-05-06T07:34:08.887Z,14.72
2019-05-06T07:36:42.958Z,14.74
2019-05-06T07:39:15.573Z,14.65
2019-05-06T07:41:53.473Z,14.54
2019-05-06T07:44:52.910Z,14.50
2019-05-06T07:47:33.118Z,14.52
2019-05-06T07:50:05.703Z,14.67
2019-05-06T07:52:37.677Z,14.47
2019-05-06T07:55:11.898Z,14.58
2019-05-06T07:57:43.499Z,14.65
2019-05-06T08:00:16.243Z,14.68
2019-05-06T08:02:47.935Z,14.83
2019-05-06T08:05:19.676Z,15.02
2019-05-06T08:07:55.068Z,15.00
2019-05-06T08:10:24.580Z,14.95
2019-05-06T08:12:56.230Z,14.97
2019-05-06T08:15:28.127Z,15.07
2019-05-06T08:17:59.911Z,15.46
2019-05-06T08:20:37.506Z,15.98
2019-05-06T08:23:19.022Z,16.35
2019-05-06T08:25:54.361Z,16.67
2019-05-06T08:28:36.843Z,16.57
2019-05-06T08:30:58.823Z,16.49
2019-05-06T08:33:32.761Z,16.75
2019-05-06T08:36:11.573Z,16.47
2019-05-06T08:38:59.475Z,16.05
2019-05-06T08:41:33.198Z,15.90
2019-05-06T08:44:04.684Z,15.60
2019-05-06T08:46:36.613Z,15.72
2019-05-06T08:49:08.339Z,15.51
2019-05-06T08:51:48.310Z,15.28
2019-05-06T08:54:43.358Z,15.25
2019-05-06T08:57:15.253Z,15.24
2019-05-06T08:59:46.834Z,14.98
2019-05-06T09:02:19.407Z,14.88
2019-05-06T09:04:51.830Z,14.77
2019-05-06T09:07:23.973Z,14.58
2019-05-06T09:09:55.726Z,14.38
2019-05-06T09:12:27.452Z,14.25
2019-05-06T09:14:59.106Z,14.24
2019-05-06T09:17:32.899Z,13.99
2019-05-06T09:20:04.801Z,13.89
2019-05-06T09:22:36.716Z,13.77
2019-05-06T09:25:08.748Z,13.70
2019-05-06T09:27:53.788Z,13.58
2019-05-06T09:30:53.387Z,13.42
2019-05-06T09:33:33.024Z,13.59
2019-05-06T09:36:04.280Z,13.27
2019-05-06T09:38:35.835Z,13.42
2019-05-06T09:41:07.432Z,13.41
2019-05-06T09:43:38.910Z,13.44
2019-05-06T09:46:12.753Z,13.48
2019-05-06T09:49:03.311Z,13.54
2019-05-06T09:51:35.025Z,13.37
2019-05-06T09:54:23.540Z,13.56
2019-05-06T09:57:02.505Z,13.65
2019-05-06T09:59:34.976Z,13.54
2019-05-06T10:02:06.663Z,13.69
2019-05-06T10:04:38.616Z,13.70
2019-05-06T10:07:11.883Z,13.83
2019-05-06T10:09:44.023Z,13.87
2019-05-06T10:12:15.461Z,13.83
2019-05-06T10:14:47.365Z,13.83
2019-05-06T10:17:19.178Z,13.88
2019-05-06T10:19:51.131Z,14.00
2019-05-06T10:22:23.365Z,14.13
2019-05-06T10:24:55.240Z,14.23
2019-05-06T10:27:28.296Z,14.08
2019-05-06T10:30:03.490Z,14.10
2019-05-06T10:32:49.443Z,14.01
2019-05-06T10:35:22.501Z,14.11
2019-05-06T10:38:44.745Z,14.13
2019-05-06T10:41:22.363Z,13.96
2019-05-06T10:44:46.631Z,13.94
2019-05-06T10:47:18.797Z,13.91
2019-05-06T10:49:52.810Z,13.94
2019-05-06T10:52:26.739Z,13.91
2019-05-06T10:54:58.438Z,13.94
2019-05-06T10:57:40.559Z,13.80
2019-05-06T11:00:13.256Z,13.79
2019-05-06T11:02:54.370Z,13.90
2019-05-06T11:05:25.916Z,14.04
2019-05-06T11:07:57.475Z,14.20
2019-05-06T11:10:38.040Z,14.31
2019-05-06T11:13:03.471Z,14.33
2019-05-06T11:15:35.330Z,14.18
2019-05-06T11:18:07.033Z,14.01
2019-05-06T11:20:38.671Z,13.83
2019-05-06T11:23:10.299Z,14.04
2019-05-06T11:25:43.153Z,14.02
2019-05-06T11:28:36.730Z,14.12
2019-05-06T11:31:37.261Z,14.26
2019-05-06T11:34:26.812Z,14.24
2019-05-06T11:37:16.511Z,14.46
2019-05-06T11:39:48.809Z,14.77
2019-05-06T11:42:31.002Z,14.90
2019-05-06T11:44:54.545Z,15.21
2019-05-06T11:47:26.460Z,15.24
2019-05-06T11:49:58.883Z,15.22
2019-05-06T11:52:30.934Z,15.28
2019-05-06T11:55:02.772Z,15.65
2019-05-06T11:57:35.906Z,15.74
2019-05-06T12:00:06.832Z,16.09
2019-05-06T12:02:41.397Z,16.21
2019-05-06T12:05:12.450Z,16.02
2019-05-06T12:08:00.384Z,15.91
2019-05-06T12:10:17.633Z,15.48
2019-05-06T12:12:49.572Z,15.34
2019-05-06T12:15:23.018Z,15.48
2019-05-06T12:17:55.968Z,15.37
2019-05-06T12:20:27.647Z,15.23
2019-05-06T12:22:59.219Z,15.05
2019-05-06T12:25:30.857Z,14.81
2019-05-06T12:28:03.151Z,14.71
2019-05-06T12:30:34.932Z,14.76
2019-05-06T12:33:38.080Z,14.75
2019-05-06T12:36:22.292Z,14.63
2019-05-06T12:39:16.014Z,14.73
2019-05-06T12:42:05.712Z,14.83
2019-05-06T12:44:38.942Z,14.86
2019-05-06T12:47:34.808Z,14.74
2019-05-06T12:50:08.237Z,14.78
2019-05-06T12:52:39.873Z,14.65
2019-05-06T12:55:20.709Z,14.47
2019-05-06T12:57:45.458Z,14.37
2019-05-06T13:00:17.453Z,14.45
2019-05-06T13:02:49.590Z,14.65
2019-05-06T13:05:21.457Z,15.06
2019-05-06T13:07:52.956Z,15.38
2019-05-06T13:10:24.788Z,15.81
2019-05-06T13:13:01.871Z,16.37
2019-05-06T13:15:33.944Z,16.39
2019-05-06T13:18:07.004Z,16.41
2019-05-06T13:20:39.783Z,16.62
2019-05-06T13:23:39.880Z,17.39
2019-05-06T13:26:12.907Z,18.45
2019-05-06T13:28:49.540Z,18.77
2019-05-06T13:31:24.999Z,18.72
2019-05-06T13:34:14.319Z,19.04
2019-05-06T13:36:46.256Z,19.98
2019-05-06T13:39:18.374Z,20.77
2019-05-06T13:41:50.070Z,21.78
2019-05-06T13:44:22.770Z,20.82
2019-05-06T13:46:55.693Z,21.16
2019-05-06T13:49:44.854Z,21.35
2019-05-06T13:52:22.806Z,21.47
2019-05-06T13:54:54.052Z,21.92
2019-05-06T13:57:28.829Z,22.42
2019-05-06T13:59:59.053Z,21.89
2019-05-06T14:02:43.446Z,21.60
2019-05-06T14:05:14.468Z,20.93
2019-05-06T14:07:46.513Z,20.84
2019-05-06T14:10:18.400Z,20.99
2019-05-06T14:12:50.197Z,20.43
2019-05-06T14:15:23.268Z,19.57
2019-05-06T14:17:55.488Z,19.22
2019-05-06T14:20:27.205Z,18.63
2019-05-06T14:22:59.150Z,18.73
2019-05-06T14:25:49.406Z,18.16
2019-05-06T14:28:43.177Z,17.54
2019-05-06T14:31:32.871Z,17.26
2019-05-06T14:34:03.731Z,16.85
2019-05-06T14:36:34.173Z,16.27
2019-05-06T14:39:06.850Z,16.01
2019-05-06T14:41:39.558Z,15.81
2019-05-06T14:44:12.225Z,15.41
2019-05-06T14:47:00.944Z,15.15
2019-05-06T14:49:32.541Z,14.88
2019-05-06T14:52:03.181Z,14.58
2019-05-06T14:54:35.289Z,14.36
2019-05-06T14:57:12.798Z,14.24
2019-05-06T14:59:43.204Z,13.97
2019-05-06T15:02:13.912Z,14.08
2019-05-06T15:04:44.555Z,14.06
2019-05-06T15:07:15.229Z,13.75
2019-05-06T15:09:58.516Z,13.74
2019-05-06T15:12:17.752Z,13.57
2019-05-06T15:14:48.222Z,13.65
2019-05-06T15:17:18.523Z,13.40
2019-05-06T15:19:49.089Z,13.43
2019-05-06T15:22:19.876Z,13.40
2019-05-06T15:24:53.260Z,13.16
2019-05-06T15:27:22.883Z,13.04
2019-05-06T15:29:57.169Z,13.03
2019-05-06T15:32:33.876Z,13.12
2019-05-06T15:35:22.322Z,13.09
2019-05-06T15:37:59.310Z,12.93
2019-05-06T15:40:33.893Z,12.62
2019-05-06T15:43:02.794Z,12.71
2019-05-06T15:45:33.518Z,12.67
2019-05-06T15:48:04.146Z,12.56
2019-05-06T15:50:34.581Z,12.36
2019-05-06T15:53:05.183Z,12.28
2019-05-06T15:55:35.651Z,12.18
2019-05-06T15:58:05.886Z,12.11
2019-05-06T16:00:36.450Z,12.03
2019-05-06T16:03:06.997Z,11.95
2019-05-06T16:05:37.688Z,11.93
2019-05-06T16:08:08.305Z,12.13
2019-05-06T16:10:51.940Z,11.94
2019-05-06T16:13:12.921Z,11.88
2019-05-06T16:15:43.993Z,11.92
2019-05-06T16:18:14.357Z,11.92
2019-05-06T16:20:44.902Z,11.95
2019-05-06T16:23:27.180Z,11.73
2019-05-06T16:25:57.962Z,11.56
2019-05-06T16:28:28.552Z,11.79
2019-05-06T16:30:59.044Z,11.76
2019-05-06T16:33:29.887Z,11.76
2019-05-06T16:36:00.279Z,11.52
2019-05-06T16:38:32.300Z,11.32
2019-05-06T16:41:12.355Z,11.41
2019-05-06T16:43:35.363Z,11.31
2019-05-06T16:46:05.855Z,11.22
2019-05-06T16:48:36.509Z,11.17
2019-05-06T16:51:06.948Z,11.17
2019-05-06T16:53:37.485Z,11.12
2019-05-06T16:56:17.200Z,11.09
2019-05-06T16:58:52.561Z,11.03
2019-05-06T17:01:23.275Z,11.08
2019-05-06T17:04:14.511Z,10.86
2019-05-06T17:06:45.050Z,10.84
2019-05-06T17:09:20.910Z,10.83
2019-05-06T17:11:47.509Z,10.66
2019-05-06T17:14:18.151Z,10.75
2019-05-06T17:16:48.666Z,10.73
2019-05-06T17:19:19.180Z,10.70
2019-05-06T17:21:49.714Z,10.64
2019-05-06T17:24:22.035Z,10.69
2019-05-06T17:26:56.119Z,10.73
2019-05-06T17:30:02.280Z,10.70
2019-05-06T17:32:54.398Z,10.85
2019-05-06T17:35:24.985Z,10.91
2019-05-06T17:38:08.114Z,11.03
2019-05-06T17:40:38.704Z,11.06
2019-05-06T17:43:09.013Z,11.04
2019-05-06T17:46:03.132Z,10.91
2019-05-06T17:49:02.797Z,10.92
2019-05-06T17:51:42.542Z,10.88
2019-05-06T17:54:13.483Z,10.88
2019-05-06T17:56:43.996Z,10.86
2019-05-06T17:59:14.652Z,10.78
2019-05-06T18:01:48.484Z,10.78
2019-05-06T18:04:18.974Z,10.64
2019-05-06T18:06:49.455Z,10.65
2019-05-06T18:09:22.196Z,10.38
2019-05-06T18:11:59.082Z,10.39
2019-05-06T18:14:24.345Z,10.51
2019-05-06T18:16:54.916Z,10.53
2019-05-06T18:19:25.503Z,10.60
2019-05-06T18:21:55.749Z,10.58
2019-05-06T18:24:26.495Z,10.58
2019-05-06T18:26:57.072Z,10.53
2019-05-06T18:29:27.519Z,10.33
2019-05-06T18:31:58.213Z,10.34
2019-05-06T18:34:29.981Z,10.33
2019-05-06T18:37:02.951Z,10.03
2019-05-06T18:39:33.925Z,10.01
2019-05-06T18:42:16.029Z,9.99
2019-05-06T18:44:37.121Z,9.93
2019-05-06T18:47:07.507Z,9.88
2019-05-06T18:49:37.955Z,9.86
2019-05-06T18:52:08.295Z,9.70
2019-05-06T18:54:38.709Z,9.69
2019-05-06T18:57:10.292Z,9.72
2019-05-06T18:59:42.439Z,9.64
2019-05-06T19:02:13.145Z,9.64
2019-05-06T19:04:57.111Z,9.61
2019-05-06T19:07:27.512Z,9.60
2019-05-06T19:10:18.576Z,9.68
2019-05-06T19:12:49.284Z,9.56
2019-05-06T19:15:21.999Z,9.68
2019-05-06T19:17:55.124Z,9.68
2019-05-06T19:20:25.886Z,9.65
2019-05-06T19:22:56.349Z,9.52
2019-05-06T19:25:27.159Z,9.51
2019-05-06T19:27:57.477Z,9.58
2019-05-06T19:30:28.084Z,9.66
2019-05-06T19:32:58.579Z,9.61
2019-05-06T19:35:29.375Z,9.55
2019-05-06T19:37:59.625Z,9.39
2019-05-06T19:40:32.173Z,9.53
2019-05-06T19:43:02.958Z,9.48
2019-05-06T19:45:34.676Z,9.35
2019-05-06T19:48:05.384Z,9.33
2019-05-06T19:50:36.861Z,9.26
2019-05-06T19:53:07.623Z,9.31
2019-05-06T19:55:38.213Z,9.29
2019-05-06T19:58:08.520Z,9.14
2019-05-06T20:00:39.042Z,9.14
2019-05-06T20:03:09.685Z,9.22
2019-05-06T20:06:02.304Z,9.12
2019-05-06T20:08:43.096Z,9.00
2019-05-06T20:11:37.265Z,8.98
2019-05-06T20:14:07.805Z,9.00
2019-05-06T20:16:38.273Z,9.04
2019-05-06T20:19:08.824Z,8.91
2019-05-06T20:21:39.314Z,8.94
2019-05-06T20:24:12.830Z,8.88
2019-05-06T20:26:43.175Z,8.88
2019-05-06T20:29:13.855Z,8.90
2019-05-06T20:31:44.351Z,8.88
2019-05-06T20:34:14.626Z,8.92
2019-05-06T20:36:45.372Z,8.90
2019-05-06T20:39:15.901Z,8.81
2019-05-06T20:41:46.555Z,8.80
2019-05-06T20:44:17.230Z,8.80
2019-05-06T20:46:47.682Z,8.70
2019-05-06T20:49:18.517Z,8.66
2019-05-06T20:51:49.295Z,8.54
2019-05-06T20:54:19.780Z,8.57
2019-05-06T20:56:50.486Z,8.56
2019-05-06T20:59:22.763Z,8.55
2019-05-06T21:01:55.405Z,8.38
2019-05-06T21:04:26.184Z,8.34
2019-05-06T21:06:56.747Z,8.31
2019-05-06T21:09:27.269Z,8.21
2019-05-06T21:11:57.835Z,8.16
2019-05-06T21:14:28.340Z,8.09
2019-05-06T21:16:58.944Z,8.14
2019-05-06T21:19:29.530Z,8.00
2019-05-06T21:22:02.180Z,7.92
2019-05-06T21:24:35.734Z,8.03
2019-05-06T21:27:05.018Z,7.99
2019-05-06T21:29:35.783Z,7.98
2019-05-06T21:32:06.038Z,7.74
2019-05-06T21:34:36.519Z,7.89
2019-05-06T21:37:06.880Z,7.94
2019-05-06T21:39:37.427Z,7.86
2019-05-06T21:42:09.485Z,7.84
2019-05-06T21:44:39.916Z,7.92
2019-05-06T21:47:10.438Z,7.95
2019-05-06T21:49:42.159Z,7.91
2019-05-06T21:52:13.218Z,7.93
2019-05-06T21:54:43.641Z,7.88
2019-05-06T21:57:14.021Z,7.85
2019-05-06T21:59:44.389Z,7.68
2019-05-06T22:02:15.892Z,7.82
2019-05-06T22:04:46.344Z,7.67
2019-05-06T22:07:16.806Z,7.76
2019-05-06T22:09:47.387Z,7.71
2019-05-06T22:12:18.867Z,7.70
2019-05-06T22:14:49.608Z,7.77
2019-05-06T22:17:22.457Z,7.77
2019-05-06T22:19:52.486Z,7.76
2019-05-06T22:22:24.920Z,7.78
2019-05-06T22:24:57.909Z,7.81
2019-05-06T22:27:30.074Z,7.77
2019-05-06T22:30:03.065Z,7.80
2019-05-06T22:32:47.022Z,7.72
2019-05-06T22:35:18.291Z,7.75
2019-05-06T22:37:48.809Z,7.80
2019-05-06T22:40:19.444Z,7.71
2019-05-06T22:42:49.811Z,7.74
2019-05-06T22:45:22.096Z,7.77
2019-05-06T22:47:53.791Z,7.75
2019-05-06T22:50:24.111Z,7.58
2019-05-06T22:52:54.463Z,7.60
2019-05-06T22:55:25.280Z,7.45
2019-05-06T22:57:55.827Z,7.37
2019-05-06T23:00:26.968Z,7.16
2019-05-06T23:03:02.281Z,7.25
2019-05-06T23:05:34.038Z,7.20
2019-05-06T23:08:05.618Z,7.30
2019-05-06T23:10:36.000Z,7.16
2019-05-06T23:13:06.361Z,7.14
2019-05-06T23:15:36.991Z,7.10
2019-05-06T23:18:07.438Z,6.95
2019-05-06T23:20:38.016Z,6.88
2019-05-06T23:23:08.556Z,6.90
2019-05-06T23:25:38.884Z,6.99
2019-05-06T23:28:11.863Z,6.87
2019-05-06T23:30:42.878Z,6.79
2019-05-06T23:33:13.982Z,6.77
2019-05-06T23:35:44.614Z,6.84
2019-05-06T23:38:33.966Z,6.81
2019-05-06T23:41:22.210Z,6.89
2019-05-06T23:44:10.026Z,6.93
2019-05-06T23:46:57.979Z,6.81
2019-05-06T23:49:45.908Z,6.76
2019-05-06T23:52:33.845Z,6.81
2019-05-06T23:55:22.053Z,6.85
2019-05-06T23:57:52.585Z,6.79
